Time;durP1;ratioP1;P1;durP2;ratioP2;P2;SDS_P1;SDS_P2;PMS_P1;PMS_P2;Temp;Humidity;BMP_temperature;BMP_pressure;BME280_temperature;BME280_humidity;BME280_pressure;Samples;Min_cycle;Max_cycle;Signal;HPM_P1;HPM_P2
2023/04/19 00:00:49;;;;;;;3.65;2.22;;;;;;;19.31;52.47;101197.91;4860832;29;20060;-59
2023/04/19 00:03:17;;;;;;;6.38;2.50;;;;;;;19.31;52.62;101197.91;4860762;29;20050;-59
2023/04/19 00:05:44;;;;;;;5.90;2.40;;;;;;;19.31;52.88;101199.75;4860653;29;20053;-59
2023/04/19 00:08:12;;;;;;;3.88;2.30;;;;;;;19.32;52.65;101204.13;4860537;29;20372;-59
2023/04/19 00:10:39;;;;;;;4.80;2.60;;;;;;;19.30;52.47;101198.03;4860562;29;20064;-59
2023/04/19 00:13:06;;;;;;;5.07;2.40;;;;;;;19.30;52.54;101196.19;4863522;29;20049;-59
2023/04/19 00:15:34;;;;;;;4.40;2.50;;;;;;;19.30;52.37;101196.19;4863961;29;20380;-59
2023/04/19 00:18:01;;;;;;;5.78;2.88;;;;;;;19.30;52.39;101179.25;4864352;29;20049;-59
2023/04/19 00:20:29;;;;;;;6.05;3.30;;;;;;;19.29;52.40;101185.59;4863838;29;20056;-51
2023/04/19 00:22:57;;;;;;;3.95;2.38;;;;;;;19.31;52.36;101186.31;4863731;29;20049;-52
2023/04/19 00:25:25;;;;;;;5.53;2.80;;;;;;;19.30;52.29;101176.56;4863651;29;20416;-54
2023/04/19 00:27:53;;;;;;;4.55;3.00;;;;;;;19.30;52.29;101187.31;4863491;29;20046;-53
2023/04/19 00:30:20;;;;;;;4.32;2.70;;;;;;;19.30;52.31;101187.31;4862590;29;20053;-55
2023/04/19 00:32:47;;;;;;;3.55;2.10;;;;;;;19.30;52.18;101184.63;4863801;29;20046;-55
2023/04/19 00:35:16;;;;;;;5.45;2.60;;;;;;;19.29;52.37;101182.91;4863621;29;20408;-53
2023/04/19 00:37:43;;;;;;;4.65;2.50;;;;;;;19.29;52.41;101189.13;4863507;29;20049;-55
2023/04/19 00:40:12;;;;;;;5.15;2.35;;;;;;;19.29;52.35;101175.72;4862455;29;20068;-59
2023/04/19 00:42:40;;;;;;;5.00;2.25;;;;;;;19.29;52.29;101173.03;4862197;29;20065;-59
2023/04/19 00:45:08;;;;;;;4.03;2.50;;;;;;;19.28;52.32;101168.63;4863371;29;20068;-59
2023/04/19 00:47:37;;;;;;;6.00;2.50;;;;;;;19.29;52.14;101167.66;4862010;29;20123;-60
2023/04/19 00:50:05;;;;;;;3.78;1.83;;;;;;;19.28;52.21;101171.28;4862063;29;20056;-52
2023/04/19 00:52:33;;;;;;;3.67;2.70;;;;;;;19.28;52.16;101163.25;4863272;29;20050;-52
2023/04/19 00:55:01;;;;;;;4.45;2.65;;;;;;;19.28;52.09;101171.28;4863146;29;20056;-54
2023/04/19 00:57:29;;;;;;;4.45;2.63;;;;;;;19.30;52.34;101168.50;4863173;29;20060;-53
2023/04/19 00:59:57;;;;;;;5.20;2.58;;;;;;;19.27;52.13;101157.03;4863754;29;20054;-54
2023/04/19 01:02:24;;;;;;;4.78;2.97;;;;;;;19.29;51.97;101156.06;4862112;29;20053;-54
2023/04/19 01:04:52;;;;;;;4.55;2.22;;;;;;;19.28;52.06;101152.50;4863132;29;20046;-55
2023/04/19 01:07:19;;;;;;;5.72;2.70;;;;;;;19.27;51.97;101153.50;4862922;29;20054;-56
2023/04/19 01:09:46;;;;;;;6.82;2.97;;;;;;;19.28;52.06;101147.13;4862930;29;20058;-59
2023/04/19 01:12:14;;;;;;;6.03;3.00;;;;;;;19.28;52.21;101155.19;4862957;29;20076;-59
2023/04/19 01:14:43;;;;;;;6.57;2.45;;;;;;;19.27;51.79;101151.66;4862812;29;20057;-59
2023/04/19 01:17:12;;;;;;;3.75;2.17;;;;;;;19.28;52.06;101149.81;4862899;29;20048;-59
2023/04/19 01:19:39;;;;;;;4.65;2.40;;;;;;;19.27;52.02;101148.97;4861475;29;20053;-59
2023/04/19 01:22:08;;;;;;;3.90;2.30;;;;;;;19.27;52.02;101148.97;4846433;29;20076;-59
2023/04/19 01:24:35;;;;;;;4.28;1.95;;;;;;;19.28;51.97;101149.81;4860736;29;20065;-60
2023/04/19 01:27:03;;;;;;;5.07;2.63;;;;;;;19.28;51.97;101149.81;4862471;29;20054;-60
2023/04/19 01:29:30;;;;;;;4.22;2.13;;;;;;;19.27;51.99;101146.28;4861816;29;20056;-59
2023/04/19 01:31:57;;;;;;;4.72;2.63;;;;;;;19.27;51.94;101143.59;4861492;29;20053;-59
2023/04/19 01:34:26;;;;;;;4.13;2.13;;;;;;;19.27;52.00;101142.75;4861560;29;20053;-59
2023/04/19 01:36:53;;;;;;;5.97;2.40;;;;;;;19.26;51.95;101141.91;4861722;29;20050;-59
2023/04/19 01:39:21;;;;;;;5.50;2.35;;;;;;;19.28;52.12;101139.09;4861330;29;20053;-59
2023/04/19 01:41:48;;;;;;;4.47;2.20;;;;;;;19.26;51.97;101128.47;4861014;29;20060;-59
2023/04/19 01:44:15;;;;;;;3.90;2.65;;;;;;;19.28;51.80;101136.41;4862382;29;20049;-59
2023/04/19 01:46:43;;;;;;;3.85;2.20;;;;;;;19.26;51.99;101136.53;4861015;29;20076;-59
2023/04/19 01:49:12;;;;;;;4.50;2.30;;;;;;;19.26;52.00;101138.38;4862395;29;20058;-59
2023/04/19 01:51:42;;;;;;;4.25;2.33;;;;;;;19.26;51.99;101131.16;4862486;29;20065;-59
2023/04/19 01:54:09;;;;;;;6.28;2.45;;;;;;;19.27;51.99;101137.38;4860906;29;20078;-59
2023/04/19 01:56:36;;;;;;;4.55;2.58;;;;;;;19.26;51.95;101136.53;4860827;29;20060;-59
2023/04/19 01:59:04;;;;;;;5.65;2.45;;;;;;;19.27;51.86;101140.91;4860885;29;20057;-59
2023/04/19 02:01:31;;;;;;;3.83;2.60;;;;;;;19.27;51.98;101140.06;4860891;29;20054;-59
2023/04/19 02:03:59;;;;;;;4.85;2.58;;;;;;;19.26;51.90;101136.53;4862027;29;20050;-59
2023/04/19 02:06:26;;;;;;;5.78;2.25;;;;;;;19.27;51.87;101132.88;4861941;29;20519;-59
2023/04/19 02:08:54;;;;;;;7.55;2.55;;;;;;;19.26;52.06;101139.22;4861636;29;20045;-58
2023/04/19 02:11:21;;;;;;;4.05;2.40;;;;;;;19.26;51.95;101141.91;4861787;29;20404;-59
2023/04/19 02:13:48;;;;;;;3.53;2.03;;;;;;;19.26;51.80;101141.91;4861819;29;20054;-59
2023/04/19 02:16:16;;;;;;;3.42;2.55;;;;;;;19.26;52.06;101141.06;4860554;29;20061;-59
2023/04/19 02:18:45;;;;;;;5.35;2.58;;;;;;;19.27;51.87;101140.06;4861834;29;20042;-54
2023/04/19 02:21:13;;;;;;;4.55;2.47;;;;;;;19.26;51.77;101141.91;4860681;29;20488;-59
2023/04/19 02:23:40;;;;;;;3.97;2.08;;;;;;;19.26;51.87;101139.22;4860483;29;20057;-59
2023/04/19 02:26:09;;;;;;;2.88;1.73;;;;;;;19.26;51.88;101135.69;4845308;29;20404;-59
2023/04/19 02:28:37;;;;;;;5.88;2.35;;;;;;;19.26;51.93;101133.00;4860211;29;20374;-54
2023/04/19 02:31:05;;;;;;;3.83;2.28;;;;;;;19.25;51.99;101132.16;4861782;29;20055;-59
2023/04/19 02:33:35;;;;;;;3.42;1.85;;;;;;;19.25;51.68;101134.00;4860368;29;20481;-59
2023/04/19 02:36:03;;;;;;;3.95;2.20;;;;;;;19.26;51.97;101135.69;4861215;29;20065;-56
2023/04/19 02:38:30;;;;;;;3.78;2.53;;;;;;;19.24;52.02;101130.47;4860601;29;20423;-53
2023/04/19 02:40:57;;;;;;;4.10;2.28;;;;;;;19.25;51.74;101134.84;4860079;29;20057;-55
2023/04/19 02:43:24;;;;;;;6.60;2.92;;;;;;;19.25;51.93;101125.94;4860626;29;20060;-55
2023/04/19 02:45:52;;;;;;;5.22;2.53;;;;;;;19.25;51.91;101129.47;4861557;29;20057;-55
2023/04/19 02:48:20;;;;;;;2.97;2.20;;;;;;;19.24;51.92;101130.47;4861240;29;20143;-56
2023/04/19 02:50:48;;;;;;;4.38;1.90;;;;;;;19.23;51.83;101126.03;4860574;29;20058;-52
2023/04/19 02:53:16;;;;;;;4.60;2.38;;;;;;;19.25;51.95;101128.63;4860031;29;20061;-55
2023/04/19 02:55:43;;;;;;;5.53;2.47;;;;;;;19.24;51.91;101126.88;4860278;29;20069;-54
2023/04/19 02:58:15;;;;;;;6.55;2.85;;;;;;;19.24;51.82;101130.47;4860373;29;20064;-55
2023/04/19 03:00:56;;;;;;;8.27;3.08;;;;;;;19.24;51.72;101132.25;4860223;29;20080;-59
2023/04/19 03:03:23;;;;;;;5.55;2.35;;;;;;;19.23;51.78;101128.72;4860034;29;20064;-59
2023/04/19 03:05:51;;;;;;;5.32;2.58;;;;;;;19.24;51.86;101129.56;4861229;29;20389;-59
2023/04/19 03:08:19;;;;;;;4.80;2.45;;;;;;;19.23;51.87;101130.56;4859884;29;20053;-59
2023/04/19 03:10:46;;;;;;;4.60;2.35;;;;;;;19.23;51.82;101122.50;4859564;29;20065;-60
2023/04/19 03:13:13;;;;;;;4.15;1.98;;;;;;;19.23;51.70;101123.34;4861406;29;20053;-59
2023/04/19 03:15:41;;;;;;;2.92;2.00;;;;;;;19.22;51.74;101124.34;4860080;29;20068;-59
2023/04/19 03:18:09;;;;;;;3.65;2.38;;;;;;;19.23;51.85;101119.81;4860146;29;20050;-59
2023/04/19 03:20:39;;;;;;;3.58;2.70;;;;;;;19.23;51.82;101119.81;4860360;29;20049;-59
2023/04/19 03:23:06;;;;;;;4.03;2.30;;;;;;;19.23;51.63;101120.66;4860968;29;20050;-59
2023/04/19 03:25:34;;;;;;;3.60;2.17;;;;;;;19.23;51.70;101123.34;4859977;29;20061;-59
2023/04/19 03:28:27;;;;;;;2.88;1.90;;;;;;;19.22;51.90;101113.59;4860246;29;20084;-60
2023/04/19 03:31:30;;;;;;;5.30;2.58;;;;;;;19.23;51.69;101115.31;4860602;29;20065;-53
2023/04/19 03:33:58;;;;;;;4.43;2.67;;;;;;;19.23;51.72;101119.81;4859206;29;20416;-54
2023/04/19 03:36:32;;;;;;;4.57;2.03;;;;;;;19.22;51.83;101118.97;4859583;29;20054;-54
2023/04/19 03:38:59;;;;;;;5.47;1.88;;;;;;;19.23;51.75;101114.44;4859973;29;20493;-55
2023/04/19 03:41:26;;;;;;;3.55;2.30;;;;;;;19.22;51.66;101110.91;4859947;29;20065;-55
2023/04/19 03:44:16;;;;;;;6.43;2.15;;;;;;;19.22;51.78;101110.91;4859711;29;20508;-55
2023/04/19 03:46:45;;;;;;;4.32;2.10;;;;;;;19.22;51.82;101108.25;4861092;29;20064;-53
2023/04/19 03:49:15;;;;;;;5.15;2.40;;;;;;;19.21;51.64;101106.53;4863472;29;20057;-59
2023/04/19 03:51:45;;;;;;;3.33;2.10;;;;;;;19.22;51.59;101105.56;4863179;29;20057;-59
2023/04/19 03:54:13;;;;;;;3.45;2.13;;;;;;;19.21;51.84;101109.22;4864321;29;20053;-59
2023/04/19 03:56:41;;;;;;;3.85;2.40;;;;;;;19.21;51.62;101101.16;4863406;29;20057;-59
2023/04/19 03:59:08;;;;;;;4.90;2.30;;;;;;;19.22;51.90;101112.75;4862916;29;20058;-55
2023/04/19 04:01:40;;;;;;;4.32;2.35;;;;;;;19.21;51.90;101111.06;4862979;29;20064;-55
2023/04/19 04:04:08;;;;;;;4.82;2.40;;;;;;;19.21;51.68;101109.22;4863259;29;20064;-52
2023/04/19 04:06:36;;;;;;;4.35;2.03;;;;;;;19.21;51.68;101111.91;4862723;29;20058;-54
2023/04/19 04:09:04;;;;;;;3.00;2.00;;;;;;;19.21;51.73;101117.28;4863944;29;20049;-59
2023/04/19 04:11:31;;;;;;;3.33;2.30;;;;;;;19.22;51.74;101112.75;4863972;29;20488;-59
2023/04/19 04:13:58;;;;;;;3.88;2.25;;;;;;;19.21;51.94;101111.91;4862804;29;20064;-59
2023/04/19 04:16:28;;;;;;;3.72;2.30;;;;;;;19.22;51.68;101112.75;4862860;29;20057;-59
2023/04/19 04:18:56;;;;;;;6.18;2.38;;;;;;;19.22;51.80;101107.38;4862715;29;20135;-58
2023/04/19 04:21:26;;;;;;;4.00;2.30;;;;;;;19.22;51.64;101118.97;4862408;29;20488;-60
2023/04/19 04:23:56;;;;;;;4.35;2.45;;;;;;;19.23;51.86;101120.66;4862462;29;20054;-59
2023/04/19 04:26:32;;;;;;;3.58;2.08;;;;;;;19.22;51.97;101121.66;4862436;29;20495;-59
2023/04/19 04:29:18;;;;;;;4.13;2.42;;;;;;;19.22;51.87;101118.97;4862441;29;20060;-59
2023/04/19 04:31:46;;;;;;;3.40;2.08;;;;;;;19.22;51.72;101120.81;4862715;29;20058;-59
2023/04/19 04:34:16;;;;;;;2.60;1.67;;;;;;;19.22;51.83;101123.50;4862305;29;20056;-59
2023/04/19 04:36:50;;;;;;;2.95;2.03;;;;;;;19.21;51.76;101119.09;4862368;29;20061;-59
2023/04/19 04:39:20;;;;;;;4.38;2.28;;;;;;;19.21;51.83;101121.78;4862527;29;20069;-54
2023/04/19 04:41:48;;;;;;;4.03;2.30;;;;;;;19.20;51.98;101118.25;4863473;29;20076;-54
2023/04/19 04:44:15;;;;;;;5.38;1.98;;;;;;;19.21;51.89;101119.97;4863538;29;20499;-54
2023/04/19 04:46:45;;;;;;;3.40;2.28;;;;;;;19.21;51.83;101121.78;4862318;29;20412;-54
2023/04/19 04:49:17;;;;;;;4.07;1.98;;;;;;;19.20;51.88;101123.63;4862501;29;20064;-53
2023/04/19 04:51:45;;;;;;;5.18;1.83;;;;;;;19.20;51.92;101123.63;4862318;29;20050;-55
2023/04/19 04:54:12;;;;;;;4.80;2.25;;;;;;;19.20;51.97;101115.56;4863457;29;20053;-53
2023/04/19 04:56:41;;;;;;;4.10;2.05;;;;;;;19.20;51.81;101118.25;4861947;29;20175;-55
2023/04/19 04:59:10;;;;;;;3.85;2.22;;;;;;;19.20;51.72;101114.69;4861391;29;20057;-53
2023/04/19 05:01:41;;;;;;;6.03;2.30;;;;;;;19.20;51.88;101126.31;4861820;29;20519;-54
2023/04/19 05:04:08;;;;;;;3.70;2.40;;;;;;;19.20;51.91;101126.31;4862033;29;20511;-54
2023/04/19 05:06:39;;;;;;;4.80;2.15;;;;;;;19.20;52.04;101130.81;4862881;29;20485;-55
2023/04/19 05:09:08;;;;;;;4.03;2.35;;;;;;;19.20;51.85;101131.69;4861882;29;20085;-59
2023/04/19 05:11:36;;;;;;;4.72;1.92;;;;;;;19.20;51.69;101130.81;4863057;29;20060;-60
2023/04/19 05:14:04;;;;;;;3.20;2.05;;;;;;;19.19;51.92;101132.63;4863178;29;20062;-59
2023/04/19 05:16:32;;;;;;;2.92;2.10;;;;;;;19.20;51.96;101123.63;4861853;29;20054;-59
2023/04/19 05:19:00;;;;;;;3.50;2.35;;;;;;;19.20;51.89;101133.47;4861754;29;20057;-59
2023/04/19 05:21:34;;;;;;;3.53;2.17;;;;;;;19.19;51.78;101127.25;4861881;29;20060;-59
2023/04/19 05:24:04;;;;;;;3.92;2.20;;;;;;;19.19;51.82;101127.25;4861553;29;20051;-59
2023/04/19 05:26:34;;;;;;;5.10;2.30;;;;;;;19.20;51.86;101134.38;4861741;29;20062;-59
2023/04/19 05:29:03;;;;;;;3.92;1.85;;;;;;;19.19;51.84;101129.94;4861397;29;20061;-59
2023/04/19 05:31:39;;;;;;;4.07;2.45;;;;;;;19.19;51.85;101119.22;4861254;29;20053;-59
2023/04/19 05:34:41;;;;;;;2.70;2.00;;;;;;;19.19;51.85;101121.03;4859001;29;20061;-59
2023/04/19 05:37:12;;;;;;;3.90;2.33;;;;;;;19.19;51.82;101113.84;4861775;29;20062;-59
2023/04/19 05:39:41;;;;;;;4.65;1.90;;;;;;;19.19;51.86;101123.72;4861507;29;20057;-52
2023/04/19 05:42:10;;;;;;;4.25;2.10;;;;;;;19.20;51.82;101114.69;4862497;29;20049;-54
2023/04/19 05:44:38;;;;;;;3.40;2.05;;;;;;;19.19;51.61;101119.22;4860471;29;20058;-55
2023/04/19 05:47:05;;;;;;;3.85;2.35;;;;;;;19.19;51.81;101124.59;4861299;29;20136;-56
2023/04/19 05:50:05;;;;;;;3.55;2.28;;;;;;;19.20;51.87;101115.56;4851741;29;20480;-55
2023/04/19 05:52:45;;;;;;;4.40;2.53;;;;;;;19.19;51.64;101113.84;4861106;29;20056;-54
2023/04/19 05:55:13;;;;;;;3.45;2.28;;;;;;;19.19;51.65;101115.69;4860921;29;20512;-55
2023/04/19 05:57:43;;;;;;;3.50;2.25;;;;;;;19.20;51.73;101114.69;4861220;29;20068;-54
2023/04/19 06:00:12;;;;;;;3.22;2.08;;;;;;;19.20;51.70;101112.00;4860895;29;20056;-54
2023/04/19 06:02:39;;;;;;;3.65;2.10;;;;;;;19.19;51.75;101108.47;4862121;29;20076;-54
2023/04/19 06:05:10;;;;;;;3.40;2.22;;;;;;;19.20;51.64;101117.38;4861260;29;20053;-54
2023/04/19 06:07:39;;;;;;;4.63;2.20;;;;;;;19.20;51.76;101115.56;4861116;29;20060;-55
2023/04/19 06:10:20;;;;;;;4.00;2.08;;;;;;;19.19;51.86;101119.22;4861756;29;20050;-51
2023/04/19 06:12:47;;;;;;;2.83;2.10;;;;;;;19.20;51.83;101114.69;4860888;29;20057;-55
2023/04/19 06:15:15;;;;;;;5.93;2.50;;;;;;;19.21;51.97;101122.66;4860810;29;20397;-53
2023/04/19 06:17:44;;;;;;;5.20;2.30;;;;;;;19.21;51.84;101122.66;4860783;29;20064;-53
2023/04/19 06:20:12;;;;;;;3.78;2.25;;;;;;;19.21;52.03;101119.97;4862019;29;20049;-60
2023/04/19 06:22:47;;;;;;;3.13;1.83;;;;;;;19.22;51.97;101120.81;4862173;29;20057;-59
2023/04/19 06:25:14;;;;;;;4.20;2.45;;;;;;;19.22;51.81;101118.97;4861912;29;20408;-59
2023/04/19 06:27:42;;;;;;;4.78;2.22;;;;;;;19.23;51.99;101123.34;4861672;29;20052;-59
2023/04/19 06:30:09;;;;;;;4.72;2.08;;;;;;;19.24;51.92;101121.53;4861566;29;20060;-59
2023/04/19 06:32:36;;;;;;;6.75;2.45;;;;;;;19.23;51.87;101123.34;4861652;29;20492;-59
2023/04/19 06:35:05;;;;;;;4.78;2.80;;;;;;;19.23;52.00;101120.66;4861604;29;20053;-59
2023/04/19 06:37:33;;;;;;;4.43;2.50;;;;;;;19.23;51.95;101112.63;4861618;29;20053;-59
2023/04/19 06:40:00;;;;;;;7.25;3.92;;;;;;;19.23;50.19;101120.66;4861429;29;20060;-59
2023/04/19 06:42:27;;;;;;;11.07;3.83;;;;;;;19.23;50.37;101120.66;4861422;29;20388;-59
2023/04/19 06:44:58;;;;;;;13.55;4.70;;;;;;;19.23;50.37;101119.81;4861371;29;20408;-59
2023/04/19 06:47:25;;;;;;;9.65;3.55;;;;;;;19.22;50.60;101118.97;4860337;29;20045;-59
2023/04/19 06:49:53;;;;;;;5.97;3.10;;;;;;;19.23;51.03;101114.44;4861564;29;20076;-59
2023/04/19 06:52:20;;;;;;;5.68;3.63;;;;;;;19.23;51.13;101114.44;4861632;29;20050;-59
2023/04/19 06:54:48;;;;;;;7.90;3.72;;;;;;;19.23;51.18;101109.09;4861365;29;20061;-59
2023/04/19 06:57:17;;;;;;;5.60;2.88;;;;;;;19.24;51.14;101114.34;4861280;29;20057;-59
2023/04/19 06:59:44;;;;;;;8.02;3.33;;;;;;;19.24;50.58;101108.97;4860951;29;20061;-53
2023/04/19 07:02:12;;;;;;;8.07;3.17;;;;;;;19.24;50.77;101108.97;4861315;29;20053;-55
2023/04/19 07:04:39;;;;;;;5.15;3.17;;;;;;;19.25;50.84;101110.69;4861304;29;20393;-52
2023/04/19 07:07:07;;;;;;;8.15;3.35;;;;;;;19.25;51.04;101105.31;4861177;29;20050;-52
2023/04/19 07:09:34;;;;;;;4.55;2.65;;;;;;;19.26;51.00;101104.31;4861193;29;20424;-54
2023/04/19 07:12:01;;;;;;;4.15;2.70;;;;;;;19.25;51.03;101102.63;4861148;29;20119;-54
2023/04/19 07:14:29;;;;;;;4.22;2.60;;;;;;;19.26;50.84;101101.63;4861096;29;20049;-55
2023/04/19 07:16:56;;;;;;;5.15;2.60;;;;;;;19.27;50.69;101103.34;4861172;29;20053;-53
2023/04/19 07:19:24;;;;;;;5.15;2.53;;;;;;;19.28;50.82;101106.88;4860876;29;20053;-52
2023/04/19 07:21:51;;;;;;;5.45;2.72;;;;;;;19.30;50.79;101101.41;4862747;29;20052;-54
2023/04/19 07:24:18;;;;;;;5.93;3.00;;;;;;;19.30;50.87;101104.09;4863320;29;20633;-52
2023/04/19 07:26:46;;;;;;;7.72;3.25;;;;;;;19.31;50.99;101100.41;4865016;29;20060;-51
2023/04/19 07:29:13;;;;;;;8.40;3.30;;;;;;;19.32;50.61;101104.78;4864561;29;20061;-62
2023/04/19 07:31:40;;;;;;;5.57;3.60;;;;;;;19.34;50.78;101097.50;4863587;29;20064;-62
2023/04/19 07:34:08;;;;;;;9.90;4.18;;;;;;;19.36;50.19;101093.69;4864466;29;20061;-62
2023/04/19 07:36:36;;;;;;;7.75;4.15;;;;;;;19.36;49.75;101104.41;4864665;29;20056;-63
2023/04/19 07:39:04;;;;;;;6.60;4.63;;;;;;;19.39;49.18;101092.59;4863641;29;20042;-54
2023/04/19 07:41:31;;;;;;;6.88;4.28;;;;;;;19.40;48.92;101102.34;4863927;29;20469;-52
2023/04/19 07:43:59;;;;;;;6.07;4.10;;;;;;;19.40;48.67;101094.28;4863968;29;20057;-53
2023/04/19 07:46:26;;;;;;;5.93;4.50;;;;;;;19.40;48.94;101095.13;4864089;29;20057;-51
2023/04/19 07:48:53;;;;;;;7.20;5.10;;;;;;;19.41;49.16;101091.50;4863877;29;20068;-52
2023/04/19 07:51:23;;;;;;;5.93;4.00;;;;;;;19.43;49.54;101100.25;4862965;29;20049;-54
2023/04/19 07:53:50;;;;;;;4.60;3.25;;;;;;;19.46;49.87;101097.34;4864469;29;20057;-54
2023/04/19 07:56:19;;;;;;;15.25;3.45;;;;;;;19.48;50.13;101091.81;4863731;29;20056;-55
2023/04/19 07:58:46;;;;;;;5.78;4.07;;;;;;;19.48;49.87;101094.50;4863917;29;20416;-56
2023/04/19 08:01:28;;;;;;;7.47;5.43;;;;;;;19.48;49.46;101089.13;4863899;29;20373;-54
2023/04/19 08:03:58;;;;;;;8.45;3.97;;;;;;;19.49;49.77;101089.03;4863934;29;20057;-55
2023/04/19 08:06:26;;;;;;;6.75;3.53;;;;;;;19.50;50.32;101081.81;4863922;29;20053;-53
2023/04/19 08:08:53;;;;;;;6.32;3.40;;;;;;;19.51;49.96;101084.38;4863724;29;20061;-53
2023/04/19 08:11:21;;;;;;;5.95;3.35;;;;;;;19.53;50.04;101095.00;4863406;29;20060;-54
2023/04/19 08:13:48;;;;;;;4.25;2.85;;;;;;;19.54;49.98;101090.47;4863492;29;20056;-52
2023/04/19 08:16:35;;;;;;;4.50;3.53;;;;;;;19.55;49.81;101092.19;4863589;29;20481;-54
2023/04/19 08:19:05;;;;;;;9.18;4.45;;;;;;;19.56;49.59;101093.88;4863631;29;20489;-54
2023/04/19 08:21:32;;;;;;;4.75;3.38;;;;;;;19.56;49.63;101083.97;4863628;29;20404;-56
2023/04/19 08:24:07;;;;;;;5.03;3.22;;;;;;;19.57;49.81;101088.41;4863733;29;20504;-54
2023/04/19 08:26:35;;;;;;;5.47;3.85;;;;;;;19.58;49.68;101083.88;4862602;29;20053;-52
2023/04/19 08:29:02;;;;;;;5.22;4.07;;;;;;;19.58;49.52;101082.03;4863679;29;20053;-63
2023/04/19 08:31:30;;;;;;;6.43;3.72;;;;;;;19.59;49.40;101083.75;4863575;29;20053;-63
2023/04/19 08:33:59;;;;;;;5.47;3.20;;;;;;;19.62;49.32;101080.00;4863338;29;20060;-63
2023/04/19 08:36:28;;;;;;;4.90;3.30;;;;;;;19.62;49.56;101078.16;4862893;29;20053;-62
2023/04/19 08:39:07;;;;;;;5.25;3.20;;;;;;;19.62;49.32;101078.16;4863456;29;20052;-53
2023/04/19 08:41:48;;;;;;;5.65;3.55;;;;;;;19.64;49.23;101078.00;4863462;29;20105;-52
2023/04/19 08:44:30;;;;;;;4.90;3.60;;;;;;;19.65;49.06;101075.22;4863170;29;20057;-50
2023/04/19 08:47:04;;;;;;;4.82;2.78;;;;;;;19.66;49.11;101068.84;4863362;29;20059;-50
2023/04/19 08:49:37;;;;;;;8.20;3.33;;;;;;;19.65;48.28;101067.16;4863455;29;20504;-51
2023/04/19 08:52:12;;;;;;;4.57;3.10;;;;;;;19.64;47.19;101072.63;4863254;29;20124;-54
2023/04/19 08:54:41;;;;;;;4.90;2.88;;;;;;;19.63;48.29;101063.72;4863675;29;20057;-52
2023/04/19 08:57:08;;;;;;;6.60;3.20;;;;;;;19.63;47.80;101062.88;4862289;29;20053;-53
2023/04/19 08:59:36;;;;;;;4.85;2.85;;;;;;;19.62;48.33;101059.34;4863221;29;20102;-63
2023/04/19 09:02:03;;;;;;;5.18;2.50;;;;;;;19.64;47.93;101054.69;4862490;29;20380;-59
2023/04/19 09:04:30;;;;;;;8.18;2.60;;;;;;;19.63;47.80;101057.50;4862247;29;20057;-62
2023/04/19 09:07:03;;;;;;;;;;;;;;;19.62;47.71;101056.66;4863192;29;20548;-62
2023/04/19 09:09:31;;;;;;;4.68;2.15;;;;;;;19.63;47.84;101047.63;4862968;29;19924;-62
2023/04/19 09:12:16;;;;;;;3.72;2.47;;;;;;;19.64;47.38;101054.69;4862990;29;20392;-62
2023/04/19 09:14:46;;;;;;;5.72;2.92;;;;;;;19.64;47.40;101043.94;4861854;29;20064;-62
2023/04/19 09:17:16;;;;;;;4.20;1.77;;;;;;;19.64;47.34;101045.78;4861559;29;20072;-62
2023/04/19 09:19:48;;;;;;;6.63;2.10;;;;;;;19.65;47.13;101045.66;4862744;29;20054;-61
2023/04/19 09:22:17;;;;;;;4.68;2.40;;;;;;;19.66;47.11;101038.47;4862555;29;20045;-61
2023/04/19 09:24:45;;;;;;;3.42;1.98;;;;;;;19.67;47.26;101037.47;4862479;29;20060;-62
2023/04/19 09:27:36;;;;;;;5.28;2.33;;;;;;;19.67;47.46;101029.41;4862908;29;20053;-62
2023/04/19 09:30:04;;;;;;;2.80;1.85;;;;;;;19.67;47.07;101032.94;4863000;29;20053;-51
2023/04/19 09:32:45;;;;;;;3.88;2.00;;;;;;;19.68;47.15;101020.38;4862675;29;20052;-51
2023/04/19 09:35:13;;;;;;;3.92;1.90;;;;;;;19.67;46.99;101022.22;4862489;29;20070;-53
2023/04/19 09:37:41;;;;;;;3.28;2.05;;;;;;;19.67;46.72;101022.22;4862522;29;20053;-54
2023/04/19 09:40:21;;;;;;;2.78;1.88;;;;;;;19.68;47.08;101017.69;4862678;29;20065;-62
2023/04/19 09:42:49;;;;;;;3.92;2.15;;;;;;;19.66;46.99;101015.13;4862308;29;20492;-62
2023/04/19 09:45:19;;;;;;;2.58;1.70;;;;;;;19.67;47.23;101010.63;4861865;29;20496;-62
2023/04/19 09:48:06;;;;;;;3.13;1.65;;;;;;;19.67;47.12;101007.94;4862266;29;20060;-62
2023/04/19 09:50:35;;;;;;;3.70;1.80;;;;;;;19.68;47.03;101006.94;4861129;29;20053;-51
2023/04/19 09:53:23;;;;;;;5.82;1.98;;;;;;;19.69;46.98;100993.41;4861987;29;20053;-51
2023/04/19 09:55:51;;;;;;;3.45;1.77;;;;;;;19.70;46.84;100991.56;4862148;29;20503;-52
2023/04/19 09:58:28;;;;;;;2.97;1.75;;;;;;;19.70;47.25;100984.34;4862153;29;20045;-50
2023/04/19 10:01:13;;;;;;;4.50;1.63;;;;;;;19.70;47.59;100987.03;4862106;29;20056;-59
2023/04/19 10:03:48;;;;;;;4.10;1.65;;;;;;;19.72;47.64;100982.38;4862097;29;20049;-59
2023/04/19 10:06:18;;;;;;;2.90;1.40;;;;;;;19.72;47.42;100979.69;4861674;29;20049;-59
2023/04/19 10:08:52;;;;;;;4.10;1.83;;;;;;;19.73;47.83;100980.56;4861739;29;20050;-53
2023/04/19 10:11:25;;;;;;;4.47;1.60;;;;;;;19.73;47.59;100978.72;4861936;29;20049;-59
2023/04/19 10:13:56;;;;;;;2.53;1.38;;;;;;;19.74;47.99;100977.72;4861972;29;20037;-59
2023/04/19 10:16:24;;;;;;;3.53;1.40;;;;;;;19.73;47.79;100978.72;4861930;29;20049;-59
2023/04/19 10:18:54;;;;;;;4.20;1.90;;;;;;;19.74;47.95;100972.38;4861818;29;20049;-52
2023/04/19 10:21:22;;;;;;;3.00;1.50;;;;;;;19.75;47.86;100965.16;4860561;29;20049;-54
2023/04/19 10:23:50;;;;;;;3.85;1.50;;;;;;;19.75;48.00;100971.38;4861671;29;20046;-50
2023/04/19 10:26:17;;;;;;;4.20;1.77;;;;;;;19.75;48.22;100955.25;4861841;29;20053;-52
2023/04/19 10:28:46;;;;;;;6.07;2.67;;;;;;;19.75;47.58;100949.88;4862596;29;20058;-53
2023/04/19 10:31:14;;;;;;;2.55;1.40;;;;;;;19.76;47.82;100945.34;4861703;29;20050;-50
2023/04/19 10:33:41;;;;;;;4.28;1.80;;;;;;;19.74;47.73;100936.59;4860896;29;20037;-51
2023/04/19 10:36:10;;;;;;;3.55;1.95;;;;;;;19.73;47.97;100935.75;4860699;29;20045;-51
2023/04/19 10:38:48;;;;;;;3.85;1.77;;;;;;;19.72;47.97;100934.03;4860906;29;20508;-50
2023/04/19 10:41:20;;;;;;;4.20;1.70;;;;;;;19.73;48.00;100929.53;4861205;29;20065;-52
2023/04/19 10:43:54;;;;;;;2.47;1.52;;;;;;;19.71;47.96;100929.63;4860832;29;20049;-51
2023/04/19 10:46:21;;;;;;;2.83;1.52;;;;;;;19.72;48.12;100923.28;4860837;29;20049;-51
2023/04/19 10:48:54;;;;;;;3.50;1.50;;;;;;;19.70;47.91;100919.03;4860812;29;20045;-58
2023/04/19 10:51:38;;;;;;;2.78;1.67;;;;;;;19.69;48.11;100912.81;4860970;29;20068;-50
2023/04/19 10:54:27;;;;;;;3.85;1.63;;;;;;;19.70;47.79;100909.16;4860895;29;20484;-51
2023/04/19 10:57:01;;;;;;;2.65;1.67;;;;;;;19.69;48.18;100907.44;4860018;29;20060;-51
2023/04/19 10:59:43;;;;;;;2.70;1.40;;;;;;;19.69;48.26;100894.03;4861154;29;20053;-51
2023/04/19 11:02:23;;;;;;;3.08;1.30;;;;;;;19.71;48.32;100899.25;4860753;29;20066;-50
2023/04/19 11:04:51;;;;;;;4.45;1.80;;;;;;;19.69;48.34;100891.34;4860902;29;20060;-50
2023/04/19 11:07:20;;;;;;;4.43;1.70;;;;;;;19.70;48.06;100886.81;4860572;29;20049;-50
2023/04/19 11:09:48;;;;;;;4.63;1.80;;;;;;;19.70;48.15;100884.13;4860596;29;20393;-58
2023/04/19 11:12:18;;;;;;;2.67;1.73;;;;;;;19.70;48.26;100876.06;4860441;29;20061;-59
2023/04/19 11:14:49;;;;;;;4.03;1.90;;;;;;;19.70;48.25;100876.91;4860801;29;20182;-62
2023/04/19 11:17:17;;;;;;;2.45;1.63;;;;;;;19.70;48.41;100876.91;4860721;29;20056;-59
2023/04/19 11:19:53;;;;;;;2.33;1.50;;;;;;;19.70;48.27;100876.06;4860611;29;20049;-51
2023/04/19 11:22:28;;;;;;;2.75;1.60;;;;;;;19.70;48.05;100868.00;4860522;29;20385;-51
2023/04/19 11:24:56;;;;;;;2.63;1.45;;;;;;;19.69;48.36;100864.47;4860502;29;20070;-50
2023/04/19 11:27:24;;;;;;;2.65;1.63;;;;;;;19.70;48.29;100859.94;4860506;29;20045;-58
2023/04/19 11:29:51;;;;;;;2.65;1.55;;;;;;;19.69;48.36;100859.09;4860607;29;20061;-58
2023/04/19 11:32:20;;;;;;;3.58;1.70;;;;;;;19.69;48.19;100859.09;4860318;29;20060;-59
2023/04/19 11:34:47;;;;;;;2.80;1.70;;;;;;;19.70;48.28;100854.56;4860450;29;20519;-59
2023/04/19 11:37:15;;;;;;;3.13;1.70;;;;;;;19.69;48.31;100853.72;4860520;29;20056;-59